• Join FlightAware (Why Join?)
  • Login
  • US Flag 
11:31AM EDT


 

Airport Tracker/Info


-or-


 

Live Flight TrackerFlight Track Log ✈ CSN6839 ✈ 23-Oct-2013 ✈ ZWWW / URC - ZWKC / KCA

Flight Track Log - Related Links

Times and Time Zones

All times are in EDT time to prevent confusion due to time zone crossing. See the CSN6839 flight status page for this flight to view local times or setup timezone preferences in your user account.

Time Position Orientation Groundspeed Altitude Reporting Facility
EDT Latitude Longitude Course Direction KTS MPH feet Rate Location/Type
04:29AM 43.8293 87.3026 238° Southwest  Level Estimated
04:30AM 43.7513 87.1313 238° Southwest  Level Estimated
04:31AM 43.6730 86.9605 238° Southwest  Level Estimated
04:32AM 43.5945 86.7902 238° Southwest  Level Estimated
04:33AM 43.5157 86.6203 237° Southwest  Level Estimated
04:34AM 43.4366 86.4508 237° Southwest  Level Estimated
04:35AM 43.3573 86.2818 237° Southwest  Level Estimated
04:36AM 43.2778 86.1132 237° Southwest  Level Estimated
04:37AM 43.1980 85.9451 237° Southwest  Level Estimated
04:38AM 43.1180 85.7774 237° Southwest  Level Estimated
04:39AM 43.0377 85.6101 237° Southwest  Level Estimated
04:40AM 42.9572 85.4433 237° Southwest  Level Estimated
04:41AM 42.8764 85.2769 237° Southwest  Level Estimated
04:42AM 42.7954 85.1110 236° Southwest  Level Estimated
04:43AM 42.7142 84.9454 236° Southwest  Level Estimated
04:44AM 42.6327 84.7804 236° Southwest  Level Estimated
04:45AM 42.5510 84.6157 236° Southwest  Level Estimated
04:46AM 42.4690 84.4515 236° Southwest  Level Estimated
04:47AM 42.3869 84.2877 236° Southwest  Level Estimated
04:48AM 42.3044 84.1244 236° Southwest  Level Estimated
04:49AM 42.2218 83.9614 236° Southwest  Level Estimated
04:50AM 42.1389 83.7989 236° Southwest  Level Estimated
04:51AM 42.0558 83.6368 235° Southwest  Level Estimated
04:52AM 41.9725 83.4752 235° Southwest  Level Estimated
04:53AM 41.8889 83.3140 235° Southwest  Level Estimated
04:54AM 41.8051 83.1532 235° Southwest  Level Estimated
04:55AM 41.7211 82.9928 235° Southwest  Level Estimated
04:56AM 41.7181 82.9869 235° Southwest  Level Estimated
04:57AM 41.7181 82.9869 143° Southeast  Level Estimated
04:58AM 41.7181 82.9869 143° Southeast  Level Estimated
04:59AM 41.7181 82.9869 143° Southeast  Level Estimated
05:00AM 41.7181 82.9869 143° Southeast  Level Estimated
05:01AM 41.7181 82.9869 143° Southeast  Level Estimated
05:02AM 41.7181 82.9869 143° Southeast  Level Estimated
05:03AM 41.7181 82.9869 143° Southeast  Level Estimated
05:04AM 41.7181 82.9869 143° Southeast  Level Estimated
05:05AM 41.7181 82.9869 143° Southeast  Level Estimated
05:06AM 41.7181 82.9869 143° Southeast  Level Estimated
05:07AM 41.7181 82.9869 143° Southeast  Level Estimated
05:08AM 41.7181 82.9869 143° Southeast  Level Estimated